首页
METAR-TAF:

METAR-TAF

机场 :

開雲-羅尚博國際機場

開雲, 法屬圭亞那

纬度: 04-50N, 经度: 052-22W, 海拔: 105米

当前天气观测

该预报发布于17分钟前的18:00 UTC
风速11节,风向,在东北东转东南之间变化
温度 32°C
湿度 59%
气压 1012 hPa
能见度10公里或以上
1500米以下无云,无积雨云

METAR: SOCA 151800Z AUTO 08011KT 050V110 CAVOK 32/23 Q1012 TEMPO 4000 SHRA FEW015TCU

时间: 15:17 (18:17 UTC)

预报

该预报发布于2小时和17分钟前的16:00 UTC
预报有效从15日的 18点(UTC)到 16日的 18点(UTC)
风速12节,风向东转东北
能见度10公里或以上
少量云层高于4000英尺
几率 30% :
短暂存在
从 15日的 18点(UTC)到 15日的 22点(UTC)
能見度: 4000
少量云层高于1500英尺, 塔状积云.
阵雨
成为
从 15日的 22点(UTC)到 15日的 24点(UTC)
风速3节,风向多变
成为
从 16日的 13点(UTC)到 16日的 15点(UTC)
风速10节,风向

TAF: SOCA 151600Z 1518/1618 07012KT 9999 FEW040 PROB30 TEMPO 1518/1522 4000 SHRA FEW015TCU BECMG 1522/1524 VRB03KT BECMG 1613/1615 09010KT

超过4000个机场的气象观测和天气预报(METAR&TAF报告)。

可查询的气象台以黄色和红色小点在地图上表示。

将鼠标移到小点上方,可查看气象台名称。

然后点击查看天气观测和预报。

如需切换地图:点击带黑十字的绿色按钮放大地图;点击带横线的绿色按钮缩小地图;或者点击绿色箭头查看邻近地区的地图。


METAR-TAF: